createdAt,value
2022-08-26T00:02:12.755Z,12.70
2022-08-26T00:04:40.955Z,11.90
2022-08-26T00:07:09.454Z,11.30
2022-08-26T00:09:40.100Z,11.60
2022-08-26T00:12:12.402Z,16.90
2022-08-26T00:14:41.212Z,13.20
2022-08-26T00:17:09.679Z,11.50
2022-08-26T00:19:38.359Z,10.50
2022-08-26T00:22:06.714Z,16.60
2022-08-26T00:24:34.999Z,15.40
2022-08-26T00:27:03.378Z,18.10
2022-08-26T00:29:37.408Z,16.90
2022-08-26T00:32:06.665Z,17.60
2022-08-26T00:34:36.307Z,14.40
2022-08-26T00:37:08.934Z,16.40
2022-08-26T00:39:38.688Z,12.80
2022-08-26T00:42:07.038Z,13.50
2022-08-26T00:44:35.328Z,11.80
2022-08-26T00:47:07.963Z,13.00
2022-08-26T00:49:39.991Z,13.10
2022-08-26T00:52:13.159Z,11.10
2022-08-26T00:54:47.044Z,19.90
2022-08-26T00:57:19.958Z,16.10
2022-08-26T00:59:52.840Z,13.20
2022-08-26T01:02:21.790Z,12.80
2022-08-26T01:04:56.489Z,13.30
2022-08-26T01:07:27.397Z,12.60
2022-08-26T01:09:57.095Z,14.50
2022-08-26T01:12:28.740Z,10.60
2022-08-26T01:14:57.321Z,10.30
2022-08-26T01:17:28.549Z,21.60
2022-08-26T01:20:10.057Z,13.10
2022-08-26T01:22:47.624Z,13.00
2022-08-26T01:25:17.471Z,11.60
2022-08-26T01:27:46.577Z,13.70
2022-08-26T01:30:19.161Z,12.20
2022-08-26T01:32:47.787Z,12.60
2022-08-26T01:35:18.184Z,12.60
2022-08-26T01:37:49.913Z,11.60
2022-08-26T01:42:49.471Z,11.10
2022-08-26T01:45:21.969Z,15.30
2022-08-26T01:47:56.776Z,12.80
2022-08-26T01:50:31.698Z,14.30
2022-08-26T01:53:06.628Z,15.50
2022-08-26T01:55:38.623Z,12.80
2022-08-26T01:58:14.132Z,10.70
2022-08-26T02:00:44.081Z,19.90
2022-08-26T02:03:19.625Z,10.20
2022-08-26T02:05:57.029Z,12.70
2022-08-26T02:08:32.081Z,9.00
2022-08-26T02:11:01.291Z,11.40
2022-08-26T02:13:30.591Z,13.10
2022-08-26T02:16:00.855Z,12.10
2022-08-26T02:18:32.867Z,15.00
2022-08-26T02:21:01.559Z,17.10
2022-08-26T02:23:30.600Z,9.20
2022-08-26T02:26:19.824Z,12.60
2022-08-26T02:29:05.169Z,11.30
2022-08-26T02:31:37.051Z,9.20
2022-08-26T02:34:31.214Z,10.90
2022-08-26T02:37:03.717Z,13.60
2022-08-26T02:39:38.928Z,16.50
2022-08-26T02:42:07.447Z,13.60
2022-08-26T02:44:36.661Z,14.90
2022-08-26T02:47:05.227Z,9.20
2022-08-26T02:49:33.377Z,10.80
2022-08-26T02:52:01.898Z,10.80
2022-08-26T02:54:30.101Z,14.00
2022-08-26T02:56:58.242Z,8.00
2022-08-26T02:59:27.073Z,9.50
2022-08-26T03:01:58.166Z,8.80
2022-08-26T03:04:26.240Z,8.80
2022-08-26T03:06:55.517Z,9.00
2022-08-26T03:09:24.525Z,8.20
2022-08-26T03:11:53.128Z,9.60
2022-08-26T03:14:23.995Z,7.90
2022-08-26T03:16:54.103Z,9.10
2022-08-26T03:19:27.516Z,9.40
2022-08-26T03:21:57.838Z,10.70
2022-08-26T03:24:31.693Z,7.60
2022-08-26T03:27:02.011Z,7.80
2022-08-26T03:29:57.881Z,9.60
2022-08-26T03:32:27.243Z,12.60
2022-08-26T03:34:57.288Z,9.10
2022-08-26T03:37:26.383Z,7.60
2022-08-26T03:39:55.343Z,7.40
2022-08-26T03:42:23.706Z,7.30
2022-08-26T03:44:51.741Z,11.30
2022-08-26T03:47:20.217Z,7.30
2022-08-26T03:49:48.399Z,7.50
2022-08-26T03:52:19.317Z,7.00
2022-08-26T03:54:50.703Z,8.00
2022-08-26T03:57:18.879Z,9.10
2022-08-26T03:59:48.848Z,10.20
2022-08-26T04:02:18.196Z,9.90
2022-08-26T04:04:46.470Z,7.90
2022-08-26T04:07:14.980Z,9.10
2022-08-26T04:09:43.555Z,6.60
2022-08-26T04:12:12.416Z,9.20
2022-08-26T04:14:42.646Z,7.80
2022-08-26T04:17:12.963Z,9.20
2022-08-26T04:19:41.213Z,9.40
2022-08-26T04:22:09.736Z,6.70
2022-08-26T04:24:39.820Z,7.50
2022-08-26T04:27:10.403Z,8.30
2022-08-26T04:29:42.207Z,9.00
2022-08-26T04:32:11.137Z,8.60
2022-08-26T04:34:40.208Z,6.80
2022-08-26T04:37:10.844Z,7.30
2022-08-26T04:39:39.123Z,11.30
2022-08-26T04:42:08.645Z,7.00
2022-08-26T04:44:40.152Z,9.40
2022-08-26T04:47:13.913Z,6.90
2022-08-26T04:49:44.431Z,12.00
2022-08-26T04:52:12.793Z,9.20
2022-08-26T04:54:41.952Z,9.30
2022-08-26T04:57:10.391Z,9.40
2022-08-26T04:59:39.578Z,9.10
2022-08-26T05:02:09.425Z,7.50
2022-08-26T05:04:38.277Z,7.80
2022-08-26T05:07:10.857Z,9.20
2022-08-26T05:09:39.988Z,9.00
2022-08-26T05:12:13.203Z,8.60
2022-08-26T05:14:41.726Z,9.50
2022-08-26T05:17:14.814Z,13.80
2022-08-26T05:19:51.687Z,12.30
2022-08-26T05:22:25.744Z,10.90
2022-08-26T05:25:01.254Z,15.70
2022-08-26T05:28:04.250Z,12.60
2022-08-26T05:30:40.346Z,14.90
2022-08-26T05:39:12.569Z,15.60
2022-08-26T05:45:00.998Z,12.30
2022-08-26T05:47:36.014Z,10.10
2022-08-26T05:50:19.111Z,12.80
2022-08-26T05:53:00.829Z,14.80
2022-08-26T05:56:17.013Z,12.10
2022-08-26T05:59:37.904Z,12.40
2022-08-26T06:02:56.031Z,13.30
2022-08-26T06:05:24.543Z,18.00
2022-08-26T06:08:19.376Z,15.30
2022-08-26T06:10:50.968Z,16.20
2022-08-26T06:13:35.195Z,17.90
2022-08-26T06:16:08.864Z,22.00
2022-08-26T06:29:46.629Z,16.10
2022-08-26T06:32:29.140Z,16.40
2022-08-26T06:34:57.789Z,17.60
2022-08-26T06:37:28.823Z,17.50
2022-08-26T06:39:58.358Z,20.60
2022-08-26T06:42:26.472Z,19.10
2022-08-26T06:44:54.706Z,16.60
2022-08-26T06:47:22.654Z,18.80
2022-08-26T06:49:51.112Z,22.10
2022-08-26T06:52:23.097Z,18.00
2022-08-26T06:54:53.021Z,19.60
2022-08-26T06:57:21.201Z,20.40
2022-08-26T06:59:51.121Z,22.90
2022-08-26T07:02:20.839Z,21.70
2022-08-26T07:04:51.207Z,20.30
2022-08-26T07:07:19.429Z,20.00
2022-08-26T07:09:52.647Z,22.90
2022-08-26T07:12:21.656Z,22.30
2022-08-26T07:14:50.327Z,23.80
2022-08-26T07:17:19.339Z,24.60
2022-08-26T07:19:49.160Z,24.60
2022-08-26T07:22:19.063Z,27.90
2022-08-26T07:24:46.966Z,20.20
2022-08-26T07:27:16.694Z,21.90
2022-08-26T07:29:45.874Z,22.90
2022-08-26T07:32:15.343Z,26.50
2022-08-26T07:34:43.844Z,23.70
2022-08-26T07:37:12.240Z,23.60
2022-08-26T07:39:41.759Z,25.90
2022-08-26T07:42:15.470Z,24.20
2022-08-26T07:44:44.297Z,27.60
2022-08-26T07:47:25.808Z,27.90
2022-08-26T07:49:57.497Z,21.60
2022-08-26T07:52:27.601Z,24.40
2022-08-26T07:55:00.758Z,19.10
2022-08-26T07:57:30.440Z,19.40
2022-08-26T07:59:59.167Z,16.00
2022-08-26T08:02:28.844Z,21.80
2022-08-26T08:04:58.008Z,16.90
2022-08-26T08:07:45.092Z,16.40
2022-08-26T08:10:21.702Z,19.60
2022-08-26T08:12:55.422Z,15.60
2022-08-26T08:15:27.881Z,17.60
2022-08-26T08:18:00.204Z,15.70
2022-08-26T08:20:30.097Z,17.20
2022-08-26T08:22:58.040Z,20.80
2022-08-26T08:25:26.230Z,18.70
2022-08-26T08:27:54.154Z,19.10
2022-08-26T08:30:23.272Z,16.80
2022-08-26T08:32:52.399Z,17.20
2022-08-26T08:35:22.661Z,18.60
2022-08-26T08:37:54.267Z,18.50
2022-08-26T08:40:25.363Z,26.60
2022-08-26T08:42:59.295Z,13.30
2022-08-26T08:45:30.475Z,17.90
2022-08-26T08:48:11.718Z,15.40
2022-08-26T08:50:45.747Z,20.60
2022-08-26T08:53:19.378Z,14.30
2022-08-26T08:55:50.190Z,18.50
2022-08-26T08:58:21.670Z,19.50
2022-08-26T09:04:01.530Z,13.90
2022-08-26T09:06:29.691Z,20.00
2022-08-26T09:08:58.391Z,15.50
2022-08-26T09:11:26.367Z,13.60
2022-08-26T09:13:56.208Z,15.20
2022-08-26T09:16:36.515Z,11.50
2022-08-26T09:19:19.309Z,13.40
2022-08-26T09:21:58.812Z,14.50
2022-08-26T09:24:30.282Z,12.60
2022-08-26T09:29:34.045Z,12.40
2022-08-26T09:32:37.579Z,15.30
2022-08-26T09:35:23.766Z,13.50
2022-08-26T09:37:53.162Z,14.00
2022-08-26T09:40:28.400Z,13.60
2022-08-26T09:43:22.237Z,13.20
2022-08-26T09:45:59.458Z,15.30
2022-08-26T09:48:36.191Z,16.80
2022-08-26T09:51:24.421Z,14.70
2022-08-26T09:53:55.365Z,11.90
2022-08-26T09:56:23.531Z,16.50
2022-08-26T09:58:51.910Z,20.00
2022-08-26T10:01:46.399Z,13.80
2022-08-26T10:04:22.150Z,8.60
2022-08-26T10:06:59.750Z,9.70
2022-08-26T10:09:29.878Z,12.70
2022-08-26T10:12:05.846Z,15.50
2022-08-26T10:14:48.465Z,11.40
2022-08-26T10:17:26.781Z,11.00
2022-08-26T10:20:02.817Z,12.90
2022-08-26T10:22:43.609Z,12.30
2022-08-26T10:25:16.034Z,12.00
2022-08-26T10:28:12.974Z,11.60
2022-08-26T10:30:45.841Z,8.60
2022-08-26T10:33:15.500Z,8.10
2022-08-26T10:35:53.285Z,12.70
2022-08-26T10:38:29.550Z,7.80
2022-08-26T10:40:57.439Z,15.10
2022-08-26T10:43:34.678Z,9.20
2022-08-26T10:46:10.258Z,12.20
2022-08-26T10:48:59.806Z,11.10
2022-08-26T10:51:35.646Z,12.90
2022-08-26T10:54:14.209Z,13.20
2022-08-26T10:57:16.550Z,9.10
2022-08-26T11:00:38.330Z,12.10
2022-08-26T11:03:21.696Z,13.30
2022-08-26T11:06:19.552Z,11.80
2022-08-26T11:08:59.668Z,15.20
2022-08-26T11:11:39.625Z,9.10
2022-08-26T11:14:28.398Z,8.20
2022-08-26T11:16:59.090Z,8.20
2022-08-26T11:19:50.537Z,11.70
2022-08-26T11:22:36.254Z,13.30
2022-08-26T11:25:12.963Z,9.40
2022-08-26T11:27:41.694Z,11.90
2022-08-26T11:30:12.658Z,11.40
2022-08-26T11:32:41.526Z,7.70
2022-08-26T11:35:12.542Z,11.60
2022-08-26T11:40:13.433Z,14.10
2022-08-26T11:42:44.966Z,10.20
2022-08-26T11:45:26.902Z,14.50
2022-08-26T11:47:55.003Z,12.80
2022-08-26T11:50:26.169Z,9.50
2022-08-26T11:53:04.303Z,10.30
2022-08-26T11:55:36.538Z,12.30
2022-08-26T11:58:05.857Z,14.60
2022-08-26T12:00:45.752Z,11.40
2022-08-26T12:03:19.926Z,8.40
2022-08-26T12:05:49.440Z,10.90
2022-08-26T12:08:22.124Z,10.30
2022-08-26T12:11:02.554Z,7.40
2022-08-26T12:13:30.556Z,8.90
2022-08-26T12:16:00.318Z,10.30
2022-08-26T12:18:36.977Z,9.20
2022-08-26T12:21:22.197Z,7.00
2022-08-26T12:23:56.259Z,6.80
2022-08-26T12:26:34.062Z,5.40
2022-08-26T12:29:19.711Z,11.30
2022-08-26T12:31:48.816Z,8.80
2022-08-26T12:34:18.517Z,10.20
2022-08-26T12:36:53.907Z,7.30
2022-08-26T12:39:45.246Z,8.30
2022-08-26T12:42:13.064Z,11.30
2022-08-26T12:44:53.905Z,10.20
2022-08-26T12:47:32.686Z,13.10
2022-08-26T12:50:18.425Z,9.60
2022-08-26T12:53:10.627Z,8.60
2022-08-26T12:55:43.831Z,9.20
2022-08-26T12:58:26.175Z,9.60
2022-08-26T13:01:14.578Z,7.80
2022-08-26T13:03:45.277Z,6.10
2022-08-26T13:08:44.281Z,10.80
2022-08-26T13:11:22.551Z,10.50
2022-08-26T13:13:53.499Z,13.50
2022-08-26T13:16:22.330Z,9.80
2022-08-26T13:18:53.671Z,9.30
2022-08-26T13:21:37.569Z,8.60
2022-08-26T13:24:11.678Z,13.60
2022-08-26T13:26:40.734Z,8.30
2022-08-26T13:29:10.617Z,5.70
2022-08-26T13:31:40.457Z,4.50
2022-08-26T13:34:12.027Z,5.20
2022-08-26T13:36:40.298Z,9.20
2022-08-26T13:39:08.203Z,3.60
2022-08-26T13:41:36.759Z,7.50
2022-08-26T13:44:06.983Z,7.60
2022-08-26T13:46:35.046Z,7.50
2022-08-26T13:49:03.917Z,8.00
2022-08-26T13:51:32.395Z,6.70
2022-08-26T13:54:01.144Z,9.10
2022-08-26T13:56:30.156Z,6.20
2022-08-26T13:58:59.770Z,6.00
2022-08-26T14:01:30.105Z,9.80
2022-08-26T14:03:58.875Z,5.60
2022-08-26T14:06:26.830Z,9.80
2022-08-26T14:08:54.749Z,8.90
2022-08-26T14:11:25.045Z,10.00
2022-08-26T14:13:53.179Z,5.40
2022-08-26T14:16:34.679Z,11.00
2022-08-26T14:19:05.022Z,8.60
2022-08-26T14:21:36.799Z,10.00
2022-08-26T14:24:06.342Z,8.20
2022-08-26T14:26:34.598Z,6.20
2022-08-26T14:29:05.912Z,10.20
2022-08-26T14:31:35.599Z,11.50
2022-08-26T14:34:06.292Z,9.50
2022-08-26T14:39:09.261Z,9.60
2022-08-26T14:41:45.616Z,6.50
2022-08-26T14:44:25.257Z,7.80
2022-08-26T14:46:54.452Z,8.10
2022-08-26T14:49:24.393Z,9.40
2022-08-26T14:51:52.354Z,5.70
2022-08-26T14:54:21.298Z,7.20
2022-08-26T14:57:05.122Z,7.00
2022-08-26T14:59:38.352Z,6.10
2022-08-26T15:02:08.068Z,6.60
2022-08-26T15:04:37.267Z,6.70
2022-08-26T15:07:05.347Z,6.60
2022-08-26T15:09:36.353Z,6.10
2022-08-26T15:12:05.667Z,6.90
2022-08-26T15:14:33.749Z,8.40
2022-08-26T15:17:02.029Z,7.50
2022-08-26T15:19:30.118Z,6.30
2022-08-26T15:22:04.940Z,9.90
2022-08-26T15:24:33.151Z,7.40
2022-08-26T15:27:02.204Z,7.90
2022-08-26T15:29:30.467Z,8.80
2022-08-26T15:32:05.428Z,6.10
2022-08-26T15:34:33.726Z,11.50
2022-08-26T15:37:02.302Z,8.50
2022-08-26T15:39:30.474Z,8.90
2022-08-26T15:42:00.029Z,6.00
2022-08-26T15:44:28.722Z,5.70
2022-08-26T15:46:58.781Z,8.30
2022-08-26T15:51:55.657Z,6.50
2022-08-26T15:54:24.521Z,8.70
2022-08-26T15:56:53.262Z,7.80
2022-08-26T15:59:22.285Z,6.30
2022-08-26T16:01:51.797Z,7.50
2022-08-26T16:04:21.486Z,5.70
2022-08-26T16:06:51.615Z,8.20
2022-08-26T16:11:57.419Z,8.10
2022-08-26T16:14:32.882Z,7.30
2022-08-26T16:17:01.282Z,9.90
2022-08-26T16:19:29.738Z,12.80
2022-08-26T16:21:57.959Z,7.60
2022-08-26T16:24:30.241Z,6.30
2022-08-26T16:26:58.824Z,4.60
2022-08-26T16:29:27.321Z,6.40
2022-08-26T16:31:55.279Z,6.40
2022-08-26T16:34:24.733Z,8.60
2022-08-26T16:36:53.237Z,4.90
2022-08-26T16:39:21.284Z,8.30
2022-08-26T16:41:49.314Z,8.10
2022-08-26T16:44:17.439Z,9.40
2022-08-26T16:46:45.802Z,9.20
2022-08-26T16:49:16.916Z,9.90
2022-08-26T16:51:45.589Z,7.00
2022-08-26T16:54:13.767Z,7.30
2022-08-26T16:56:41.682Z,6.20
2022-08-26T16:59:11.577Z,8.00
2022-08-26T17:01:39.877Z,10.70
2022-08-26T17:04:08.252Z,8.60
2022-08-26T17:06:36.855Z,9.80
2022-08-26T17:09:05.206Z,7.90
2022-08-26T17:11:33.842Z,3.90
2022-08-26T17:14:01.865Z,6.10
2022-08-26T17:16:30.174Z,7.40
2022-08-26T17:18:59.032Z,9.60
2022-08-26T17:21:28.414Z,8.70
2022-08-26T17:23:57.573Z,10.70
2022-08-26T17:26:26.921Z,8.10
2022-08-26T17:28:55.437Z,7.40
2022-08-26T17:31:25.374Z,12.50
2022-08-26T17:33:55.556Z,9.70
2022-08-26T17:36:28.015Z,5.70
2022-08-26T17:38:58.633Z,11.10
2022-08-26T17:41:27.131Z,8.60
2022-08-26T17:43:55.390Z,9.40
2022-08-26T17:46:24.634Z,9.60
2022-08-26T17:48:52.837Z,13.60
2022-08-26T17:51:23.014Z,9.80
2022-08-26T17:53:52.011Z,12.60
2022-08-26T17:56:24.200Z,9.70
2022-08-26T17:59:02.487Z,9.50
2022-08-26T18:01:32.773Z,7.30
2022-08-26T18:04:01.675Z,12.30
2022-08-26T18:06:30.836Z,12.40
2022-08-26T18:09:00.707Z,10.80
2022-08-26T18:11:32.145Z,7.50
2022-08-26T18:16:31.853Z,10.30
2022-08-26T18:19:01.323Z,13.90
2022-08-26T18:21:29.332Z,9.20
2022-08-26T18:23:58.309Z,10.30
2022-08-26T18:26:34.505Z,10.70
2022-08-26T18:29:03.376Z,11.80
2022-08-26T18:31:31.553Z,14.10
2022-08-26T18:34:01.372Z,8.80
2022-08-26T18:36:32.699Z,11.60
2022-08-26T18:39:02.601Z,10.20
2022-08-26T18:41:32.707Z,6.10
2022-08-26T18:44:00.741Z,6.80
2022-08-26T18:46:28.804Z,8.40
2022-08-26T18:48:58.483Z,5.90
2022-08-26T18:51:32.914Z,7.50
2022-08-26T18:54:03.359Z,7.40
2022-08-26T18:56:32.239Z,6.50
2022-08-26T18:59:00.424Z,5.50
2022-08-26T19:01:30.128Z,6.40
2022-08-26T19:04:02.494Z,8.30
2022-08-26T19:06:33.723Z,7.00
2022-08-26T19:09:03.891Z,11.50
2022-08-26T19:11:42.316Z,11.00
2022-08-26T19:14:13.865Z,7.90
2022-08-26T19:16:45.930Z,9.50
2022-08-26T19:19:14.939Z,7.60
2022-08-26T19:21:43.135Z,9.10
2022-08-26T19:24:15.599Z,10.10
2022-08-26T19:26:45.956Z,12.10
2022-08-26T19:29:15.730Z,10.90
2022-08-26T19:31:44.173Z,9.20
2022-08-26T19:34:18.308Z,11.10
2022-08-26T19:36:49.644Z,9.30
2022-08-26T19:39:17.682Z,12.50
2022-08-26T19:41:45.589Z,9.60
2022-08-26T19:44:39.393Z,12.90
2022-08-26T19:47:09.801Z,5.70
2022-08-26T19:49:38.260Z,11.60
2022-08-26T19:52:06.351Z,15.90
2022-08-26T19:54:36.199Z,7.90
2022-08-26T19:57:04.950Z,10.90
2022-08-26T19:59:33.770Z,9.80
2022-08-26T20:02:05.059Z,11.90
2022-08-26T20:04:36.120Z,10.90
2022-08-26T20:07:05.337Z,10.20
2022-08-26T20:09:34.226Z,8.60
2022-08-26T20:12:04.372Z,8.50
2022-08-26T20:14:33.921Z,9.80
2022-08-26T20:17:04.759Z,10.80
2022-08-26T20:19:53.728Z,10.40
2022-08-26T20:22:23.438Z,7.20
2022-08-26T20:24:52.172Z,10.70
2022-08-26T20:27:22.278Z,15.00
2022-08-26T20:29:50.193Z,14.40
2022-08-26T20:32:19.619Z,10.20
2022-08-26T20:34:47.781Z,7.80
2022-08-26T20:37:16.683Z,9.20
2022-08-26T20:39:49.409Z,6.60
2022-08-26T20:42:20.009Z,12.80
2022-08-26T20:44:54.494Z,12.30
2022-08-26T20:47:23.278Z,11.70
2022-08-26T20:49:52.640Z,10.90
2022-08-26T20:52:20.922Z,12.40
2022-08-26T20:54:48.912Z,11.70
2022-08-26T20:57:16.917Z,7.40
2022-08-26T20:59:45.016Z,16.20
2022-08-26T21:02:12.921Z,10.60
2022-08-26T21:04:40.859Z,11.30
2022-08-26T21:07:08.822Z,9.70
2022-08-26T21:09:36.772Z,9.60
2022-08-26T21:12:06.705Z,10.20
2022-08-26T21:14:34.702Z,7.20
2022-08-26T21:17:02.683Z,9.10
2022-08-26T21:19:30.720Z,10.20
2022-08-26T21:21:59.611Z,13.80
2022-08-26T21:24:27.613Z,8.90
2022-08-26T21:26:55.598Z,8.30
2022-08-26T21:29:23.576Z,9.40
2022-08-26T21:31:51.579Z,19.30
2022-08-26T21:34:20.280Z,10.90
2022-08-26T21:36:48.897Z,7.30
2022-08-26T21:39:16.909Z,9.10
2022-08-26T21:41:45.742Z,11.90
2022-08-26T21:44:14.884Z,8.60
2022-08-26T21:46:44.395Z,8.90
2022-08-26T21:49:15.615Z,9.50
2022-08-26T21:51:45.977Z,8.50
2022-08-26T21:54:15.629Z,7.90
2022-08-26T21:56:46.583Z,9.20
2022-08-26T21:59:18.431Z,9.80
2022-08-26T22:01:47.082Z,10.80
2022-08-26T22:04:15.662Z,15.20
2022-08-26T22:06:54.947Z,16.40
2022-08-26T22:09:25.510Z,10.30
2022-08-26T22:11:56.819Z,12.80
2022-08-26T22:14:30.900Z,16.80
2022-08-26T22:16:59.959Z,14.60
2022-08-26T22:19:28.086Z,13.10
2022-08-26T22:21:56.108Z,9.80
2022-08-26T22:24:25.805Z,16.70
2022-08-26T22:26:54.601Z,16.30
2022-08-26T22:29:24.397Z,9.90
2022-08-26T22:31:52.925Z,12.00
2022-08-26T22:34:23.101Z,14.00
2022-08-26T22:36:51.401Z,12.30
2022-08-26T22:39:22.389Z,12.70
2022-08-26T22:41:52.106Z,11.90
2022-08-26T22:44:22.105Z,14.80
2022-08-26T22:46:54.373Z,18.80
2022-08-26T22:49:23.302Z,13.90
2022-08-26T22:51:51.244Z,14.50
2022-08-26T22:54:19.602Z,10.80
2022-08-26T22:56:47.543Z,13.70
2022-08-26T22:59:16.265Z,17.50
2022-08-26T23:01:44.729Z,16.10
2022-08-26T23:04:12.660Z,13.80
2022-08-26T23:06:43.355Z,11.20
2022-08-26T23:09:18.206Z,12.40
2022-08-26T23:11:48.368Z,10.70
2022-08-26T23:14:17.654Z,16.20
2022-08-26T23:16:45.815Z,11.80
2022-08-26T23:19:15.546Z,10.10
2022-08-26T23:21:43.767Z,11.40
2022-08-26T23:24:12.098Z,11.30
2022-08-26T23:26:41.634Z,11.50
2022-08-26T23:29:11.575Z,9.70
2022-08-26T23:31:41.283Z,16.10
2022-08-26T23:34:27.771Z,11.60
2022-08-26T23:36:59.061Z,12.20
2022-08-26T23:39:28.566Z,15.10
2022-08-26T23:44:50.118Z,14.70
2022-08-26T23:47:18.059Z,13.80
2022-08-26T23:49:45.954Z,10.10
2022-08-26T23:52:32.854Z,9.50
2022-08-26T23:55:00.759Z,7.80
2022-08-26T23:57:29.712Z,12.10
2022-08-26T23:59:57.936Z,9.00
